createdAt,value
2018-07-09T00:00:08.172Z,21.90
2018-07-09T00:01:15.099Z,21.90
2018-07-09T00:01:49.364Z,21.90
2018-07-09T00:02:23.059Z,21.90
2018-07-09T00:02:56.758Z,21.90
2018-07-09T00:03:30.393Z,21.90
2018-07-09T00:04:04.640Z,21.90
2018-07-09T00:04:38.204Z,21.90
2018-07-09T00:05:11.780Z,21.90
2018-07-09T00:05:49.974Z,21.90
2018-07-09T00:06:24.476Z,21.90
2018-07-09T00:06:58.063Z,21.90
2018-07-09T00:07:31.624Z,21.90
2018-07-09T00:08:05.777Z,21.90
2018-07-09T00:08:39.319Z,21.90
2018-07-09T00:09:12.891Z,21.90
2018-07-09T00:09:46.582Z,21.90
2018-07-09T00:11:27.117Z,21.90
2018-07-09T00:12:00.750Z,21.90
2018-07-09T00:12:34.389Z,21.80
2018-07-09T00:13:08.018Z,21.80
2018-07-09T00:13:42.320Z,21.80
2018-07-09T00:14:15.939Z,21.80
2018-07-09T00:14:50.074Z,21.80
2018-07-09T00:15:23.655Z,21.80
2018-07-09T00:15:58.379Z,21.80
2018-07-09T00:16:32.023Z,21.80
2018-07-09T00:17:05.899Z,21.70
2018-07-09T00:17:40.166Z,21.70
2018-07-09T00:18:14.033Z,21.70
2018-07-09T00:18:48.159Z,21.80
2018-07-09T00:19:21.687Z,21.80
2018-07-09T00:19:55.286Z,21.80
2018-07-09T00:20:28.852Z,21.80
2018-07-09T00:21:02.435Z,21.80
2018-07-09T00:21:36.153Z,21.80
2018-07-09T00:22:09.724Z,21.80
2018-07-09T00:22:43.312Z,21.80
2018-07-09T00:23:17.915Z,21.80
2018-07-09T00:23:52.413Z,21.80
2018-07-09T00:24:26.693Z,21.80
2018-07-09T00:25:00.360Z,21.80
2018-07-09T00:25:34.082Z,21.80
2018-07-09T00:26:08.033Z,21.80
2018-07-09T00:26:42.691Z,21.80
2018-07-09T00:27:17.126Z,21.70
2018-07-09T00:27:51.341Z,21.70
2018-07-09T00:28:25.300Z,21.70
2018-07-09T00:28:59.015Z,21.70
2018-07-09T00:29:32.580Z,21.70
2018-07-09T00:30:06.256Z,21.70
2018-07-09T00:30:40.020Z,21.70
2018-07-09T00:31:13.645Z,21.70
2018-07-09T00:31:47.762Z,21.70
2018-07-09T00:32:21.993Z,21.70
2018-07-09T00:32:55.839Z,21.60
2018-07-09T00:33:29.507Z,21.60
2018-07-09T00:34:03.171Z,21.60
2018-07-09T00:34:37.363Z,21.60
2018-07-09T00:35:11.524Z,21.60
2018-07-09T00:35:45.584Z,21.60
2018-07-09T00:36:19.208Z,21.60
2018-07-09T00:36:52.822Z,21.60
2018-07-09T00:37:27.188Z,21.60
2018-07-09T00:38:00.764Z,21.60
2018-07-09T00:38:34.988Z,21.60
2018-07-09T00:39:08.985Z,21.60
2018-07-09T00:39:43.123Z,21.60
2018-07-09T00:40:17.424Z,21.60
2018-07-09T00:40:51.089Z,21.60
2018-07-09T00:41:24.897Z,21.60
2018-07-09T00:41:58.585Z,21.60
2018-07-09T00:42:32.272Z,21.60
2018-07-09T00:43:06.777Z,21.60
2018-07-09T00:43:40.357Z,21.60
2018-07-09T00:44:14.053Z,21.60
2018-07-09T00:44:49.128Z,21.60
2018-07-09T00:45:22.780Z,21.60
2018-07-09T00:45:57.823Z,21.60
2018-07-09T00:46:32.366Z,21.60
2018-07-09T00:47:06.577Z,21.60
2018-07-09T00:47:40.799Z,21.60
2018-07-09T00:48:14.452Z,21.60
2018-07-09T00:48:48.044Z,21.50
2018-07-09T00:49:22.095Z,21.50
2018-07-09T00:49:55.749Z,21.50
2018-07-09T00:50:29.785Z,21.50
2018-07-09T00:51:03.471Z,21.50
2018-07-09T00:51:37.899Z,21.50
2018-07-09T00:52:12.234Z,21.50
2018-07-09T00:52:46.381Z,21.50
2018-07-09T00:53:19.984Z,21.50
2018-07-09T00:53:53.626Z,21.50
2018-07-09T00:54:27.526Z,21.50
2018-07-09T00:55:01.190Z,21.50
2018-07-09T00:55:35.011Z,21.50
2018-07-09T00:56:08.685Z,21.50
2018-07-09T00:56:42.710Z,21.50
2018-07-09T00:57:17.062Z,21.50
2018-07-09T00:57:53.143Z,21.40
2018-07-09T00:58:27.967Z,21.40
2018-07-09T00:59:04.636Z,21.40
2018-07-09T00:59:40.236Z,21.40
2018-07-09T01:00:15.318Z,21.40
2018-07-09T01:01:28.759Z,21.40
2018-07-09T01:02:04.963Z,21.40
2018-07-09T01:02:39.444Z,21.30
2018-07-09T01:03:13.969Z,21.30
2018-07-09T01:03:47.609Z,21.30
2018-07-09T01:04:22.689Z,21.30
2018-07-09T01:04:58.343Z,21.30
2018-07-09T01:05:32.097Z,21.30
2018-07-09T01:06:05.858Z,21.30
2018-07-09T01:06:39.465Z,21.30
2018-07-09T01:07:13.087Z,21.30
2018-07-09T01:07:46.677Z,21.30
2018-07-09T01:08:20.276Z,21.30
2018-07-09T01:08:54.684Z,21.30
2018-07-09T01:09:28.917Z,21.30
2018-07-09T01:10:02.598Z,21.30
2018-07-09T01:10:46.081Z,21.30
2018-07-09T01:11:30.877Z,21.30
2018-07-09T01:12:11.404Z,21.30
2018-07-09T01:12:45.013Z,21.30
2018-07-09T01:13:25.039Z,21.30
2018-07-09T01:13:58.584Z,21.20
2018-07-09T01:14:33.020Z,21.20
2018-07-09T01:15:07.957Z,21.20
2018-07-09T01:15:41.501Z,21.20
2018-07-09T01:16:15.109Z,21.20
2018-07-09T01:16:48.780Z,21.20
2018-07-09T01:17:23.099Z,21.20
2018-07-09T01:17:56.611Z,21.20
2018-07-09T01:18:30.212Z,21.20
2018-07-09T01:19:03.815Z,21.20
2018-07-09T01:20:10.701Z,21.20
2018-07-09T01:20:44.383Z,21.10
2018-07-09T01:21:18.089Z,21.10
2018-07-09T01:21:51.854Z,21.10
2018-07-09T01:22:58.752Z,21.10
2018-07-09T01:23:32.545Z,21.10
2018-07-09T01:24:07.339Z,21.10
2018-07-09T01:25:14.202Z,21.10
2018-07-09T01:25:47.822Z,21.10
2018-07-09T01:26:21.438Z,21.10
2018-07-09T01:26:55.504Z,21.10
2018-07-09T01:27:29.633Z,21.10
2018-07-09T01:28:03.228Z,21.10
2018-07-09T01:28:37.796Z,21.10
2018-07-09T01:29:11.415Z,21.10
2018-07-09T01:29:45.056Z,21.10
2018-07-09T01:30:18.839Z,21.10
2018-07-09T01:30:54.460Z,21.10
2018-07-09T01:31:28.769Z,21.10
2018-07-09T01:32:36.284Z,21.10
2018-07-09T01:33:10.045Z,21.10
2018-07-09T01:33:43.582Z,21.10
2018-07-09T01:34:17.192Z,21.10
2018-07-09T01:34:50.763Z,21.10
2018-07-09T01:35:25.036Z,21.10
2018-07-09T01:35:58.655Z,21.10
2018-07-09T01:36:32.244Z,21.10
2018-07-09T01:37:06.321Z,21.00
2018-07-09T01:37:41.095Z,21.10
2018-07-09T01:38:15.308Z,21.00
2018-07-09T01:38:48.880Z,21.10
2018-07-09T01:39:22.409Z,21.00
2018-07-09T01:39:56.002Z,21.00
2018-07-09T01:40:29.623Z,21.00
2018-07-09T01:41:03.922Z,21.00
2018-07-09T01:41:37.468Z,21.00
2018-07-09T01:42:11.624Z,21.00
2018-07-09T01:42:46.488Z,21.00
2018-07-09T01:43:20.059Z,20.90
2018-07-09T01:43:54.256Z,20.90
2018-07-09T01:44:27.841Z,20.90
2018-07-09T01:45:02.739Z,20.90
2018-07-09T01:45:36.432Z,20.90
2018-07-09T01:46:10.056Z,20.90
2018-07-09T01:46:44.288Z,20.90
2018-07-09T01:47:17.875Z,20.90
2018-07-09T01:47:51.477Z,20.90
2018-07-09T01:48:25.108Z,20.90
2018-07-09T01:48:58.997Z,20.90
2018-07-09T01:49:33.535Z,20.90
2018-07-09T01:50:07.202Z,21.00
2018-07-09T01:50:40.776Z,21.00
2018-07-09T01:51:14.917Z,20.90
2018-07-09T01:51:49.184Z,20.90
2018-07-09T01:52:23.392Z,20.90
2018-07-09T01:52:57.010Z,20.90
2018-07-09T01:53:30.666Z,20.90
2018-07-09T01:54:04.678Z,20.90
2018-07-09T01:54:38.788Z,20.90
2018-07-09T01:55:12.389Z,20.90
2018-07-09T01:55:46.552Z,20.90
2018-07-09T01:56:20.132Z,20.90
2018-07-09T01:56:54.219Z,20.90
2018-07-09T01:57:27.879Z,20.90
2018-07-09T01:58:01.440Z,20.90
2018-07-09T01:58:36.267Z,20.90
2018-07-09T01:59:09.936Z,20.90
2018-07-09T01:59:43.793Z,20.90
2018-07-09T02:00:17.378Z,20.90
2018-07-09T02:00:50.984Z,20.90
2018-07-09T02:01:25.103Z,20.90
2018-07-09T02:02:31.921Z,20.80
2018-07-09T02:03:05.518Z,20.80
2018-07-09T02:03:39.204Z,20.80
2018-07-09T02:04:12.768Z,20.80
2018-07-09T02:04:46.335Z,20.80
2018-07-09T02:05:19.962Z,20.80
2018-07-09T02:05:54.232Z,20.80
2018-07-09T02:06:27.787Z,20.80
2018-07-09T02:07:01.361Z,20.80
2018-07-09T02:07:37.160Z,20.80
2018-07-09T02:08:10.828Z,20.80
2018-07-09T02:08:44.421Z,20.80
2018-07-09T02:09:17.989Z,20.80
2018-07-09T02:09:52.343Z,20.70
2018-07-09T02:10:26.028Z,20.70
2018-07-09T02:10:59.633Z,20.70
2018-07-09T02:11:33.226Z,20.80
2018-07-09T02:12:07.207Z,20.70
2018-07-09T02:12:40.846Z,20.70
2018-07-09T02:13:15.059Z,20.70
2018-07-09T02:14:24.655Z,20.70
2018-07-09T02:14:58.258Z,20.80
2018-07-09T02:15:31.967Z,20.70
2018-07-09T02:16:06.058Z,20.80
2018-07-09T02:16:39.640Z,20.80
2018-07-09T02:17:13.218Z,20.70
2018-07-09T02:17:47.755Z,20.70
2018-07-09T02:18:22.048Z,20.70
2018-07-09T02:18:56.948Z,20.70
2018-07-09T02:19:30.500Z,20.70
2018-07-09T02:20:04.135Z,20.60
2018-07-09T02:20:37.714Z,20.60
2018-07-09T02:21:11.264Z,20.60
2018-07-09T02:21:44.829Z,20.60
2018-07-09T02:22:18.322Z,20.60
2018-07-09T02:22:51.932Z,20.60
2018-07-09T02:23:26.243Z,20.60
2018-07-09T02:23:59.885Z,20.60
2018-07-09T02:24:33.484Z,20.60
2018-07-09T02:25:07.184Z,20.70
2018-07-09T02:25:40.750Z,20.60
2018-07-09T02:26:14.357Z,20.60
2018-07-09T02:26:47.954Z,20.60
2018-07-09T02:27:21.559Z,20.60
2018-07-09T02:27:56.354Z,20.60
2018-07-09T02:28:29.959Z,20.60
2018-07-09T02:29:03.519Z,20.60
2018-07-09T02:29:37.121Z,20.60
2018-07-09T02:30:10.732Z,20.60
2018-07-09T02:30:44.289Z,20.60
2018-07-09T02:31:17.881Z,20.60
2018-07-09T02:31:51.694Z,20.60
2018-07-09T02:32:25.218Z,20.60
2018-07-09T02:32:58.755Z,20.50
2018-07-09T02:33:32.304Z,20.50
2018-07-09T02:34:06.967Z,20.50
2018-07-09T02:34:40.614Z,20.50
2018-07-09T02:35:14.958Z,20.50
2018-07-09T02:35:48.581Z,20.50
2018-07-09T02:36:55.663Z,20.50
2018-07-09T02:37:29.277Z,20.50
2018-07-09T02:38:02.833Z,20.50
2018-07-09T02:38:36.799Z,20.50
2018-07-09T02:39:11.269Z,20.50
2018-07-09T02:39:46.336Z,20.50
2018-07-09T02:40:19.957Z,20.50
2018-07-09T02:40:53.586Z,20.50
2018-07-09T02:41:27.304Z,20.40
2018-07-09T02:42:00.921Z,20.40
2018-07-09T02:42:34.480Z,20.40
2018-07-09T02:43:08.665Z,20.40
2018-07-09T02:43:42.998Z,20.30
2018-07-09T02:44:16.581Z,20.30
2018-07-09T02:44:50.139Z,20.30
2018-07-09T02:45:56.967Z,20.40
2018-07-09T02:46:30.569Z,20.40
2018-07-09T02:47:04.847Z,20.30
2018-07-09T02:47:38.477Z,20.40
2018-07-09T02:48:12.120Z,20.40
2018-07-09T02:48:45.647Z,20.40
2018-07-09T02:49:19.480Z,20.30
2018-07-09T02:49:53.032Z,20.30
2018-07-09T02:50:26.728Z,20.30
2018-07-09T02:51:01.217Z,20.30
2018-07-09T02:51:34.983Z,20.30
2018-07-09T02:52:08.577Z,20.30
2018-07-09T02:52:42.264Z,20.30
2018-07-09T02:53:15.959Z,20.30
2018-07-09T02:53:49.579Z,20.30
2018-07-09T02:54:23.603Z,20.30
2018-07-09T02:54:57.214Z,20.30
2018-07-09T02:55:31.810Z,20.30
2018-07-09T02:56:05.693Z,20.30
2018-07-09T02:56:39.555Z,20.20
2018-07-09T02:57:13.109Z,20.20
2018-07-09T02:57:46.661Z,20.20
2018-07-09T02:58:20.782Z,20.20
2018-07-09T02:58:54.601Z,20.20
2018-07-09T02:59:28.780Z,20.20
2018-07-09T03:00:02.358Z,20.20
2018-07-09T03:00:36.011Z,20.20
2018-07-09T03:01:09.775Z,20.20
2018-07-09T03:01:43.604Z,20.20
2018-07-09T03:02:17.257Z,20.20
2018-07-09T03:02:50.804Z,20.20
2018-07-09T03:03:24.400Z,20.20
2018-07-09T03:03:58.020Z,20.20
2018-07-09T03:04:31.637Z,20.20
2018-07-09T03:05:07.172Z,20.20
2018-07-09T03:05:40.747Z,20.20
2018-07-09T03:06:14.913Z,20.20
2018-07-09T03:07:56.452Z,20.20
2018-07-09T03:08:30.019Z,20.10
2018-07-09T03:09:04.753Z,20.10
2018-07-09T03:09:38.295Z,20.10
2018-07-09T03:10:45.717Z,20.20
2018-07-09T03:11:19.361Z,20.20
2018-07-09T03:12:26.972Z,20.10
2018-07-09T03:13:00.547Z,20.10
2018-07-09T03:13:34.907Z,20.10
2018-07-09T03:14:09.209Z,20.10
2018-07-09T03:14:43.515Z,20.10
2018-07-09T03:15:17.069Z,20.00
2018-07-09T03:15:50.727Z,20.00
2018-07-09T03:16:25.035Z,20.00
2018-07-09T03:17:31.851Z,19.90
2018-07-09T03:18:05.726Z,20.00
2018-07-09T03:18:39.287Z,20.00
2018-07-09T03:19:13.538Z,20.00
2018-07-09T03:19:47.649Z,19.90
2018-07-09T03:20:21.287Z,20.00
2018-07-09T03:20:54.875Z,19.90
2018-07-09T03:21:29.986Z,20.00
2018-07-09T03:22:03.552Z,20.00
2018-07-09T03:22:37.176Z,20.00
2018-07-09T03:23:10.794Z,20.00
2018-07-09T03:23:44.483Z,19.90
2018-07-09T03:24:18.073Z,19.90
2018-07-09T03:24:51.703Z,20.00
2018-07-09T03:25:25.555Z,20.00
2018-07-09T03:25:59.099Z,19.90
2018-07-09T03:26:32.645Z,20.00
2018-07-09T03:27:06.238Z,20.00
2018-07-09T03:27:39.761Z,19.90
2018-07-09T03:28:13.388Z,19.90
2018-07-09T03:28:46.940Z,19.90
2018-07-09T03:29:20.528Z,20.00
2018-07-09T03:29:54.113Z,19.90
2018-07-09T03:30:27.692Z,19.90
2018-07-09T03:31:01.642Z,19.90
2018-07-09T03:31:35.345Z,19.90
2018-07-09T03:32:08.914Z,19.90
2018-07-09T03:32:42.578Z,19.90
2018-07-09T03:33:16.173Z,19.90
2018-07-09T03:33:50.367Z,19.90
2018-07-09T03:34:23.949Z,19.90
2018-07-09T03:34:58.184Z,19.80
2018-07-09T03:35:31.975Z,19.80
2018-07-09T03:36:06.020Z,19.80
2018-07-09T03:36:39.633Z,19.80
2018-07-09T03:37:14.275Z,19.80
2018-07-09T03:37:48.475Z,19.80
2018-07-09T03:38:22.935Z,19.80
2018-07-09T03:38:57.458Z,19.80
2018-07-09T03:39:31.063Z,19.70
2018-07-09T03:40:05.586Z,19.70
2018-07-09T03:40:39.900Z,19.70
2018-07-09T03:41:14.359Z,19.70
2018-07-09T03:41:48.546Z,19.80
2018-07-09T03:42:22.083Z,19.80
2018-07-09T03:42:55.676Z,19.80
2018-07-09T03:43:29.861Z,19.80
2018-07-09T03:44:04.624Z,19.80
2018-07-09T03:44:39.986Z,19.80
2018-07-09T03:45:14.202Z,19.80
2018-07-09T03:45:48.512Z,19.80
2018-07-09T03:46:22.093Z,19.80
2018-07-09T03:46:56.131Z,19.80
2018-07-09T03:47:29.745Z,19.80
2018-07-09T03:48:03.391Z,19.80
2018-07-09T03:48:36.935Z,19.80
2018-07-09T03:49:10.538Z,19.80
2018-07-09T03:49:44.729Z,19.80
2018-07-09T03:50:19.501Z,19.80
2018-07-09T03:50:53.800Z,19.70
2018-07-09T03:51:27.697Z,19.70
2018-07-09T03:52:02.120Z,19.70
2018-07-09T03:52:36.836Z,19.70
2018-07-09T03:53:10.419Z,19.70
2018-07-09T03:53:44.574Z,19.70
2018-07-09T03:54:18.256Z,19.70
2018-07-09T03:54:52.322Z,19.70
2018-07-09T03:55:26.024Z,19.70
2018-07-09T03:55:59.578Z,19.60
2018-07-09T03:56:33.184Z,19.60
2018-07-09T03:57:06.751Z,19.60
2018-07-09T03:57:40.403Z,19.60
2018-07-09T03:58:14.696Z,19.60
2018-07-09T03:58:48.425Z,19.60
2018-07-09T03:59:22.400Z,19.60
2018-07-09T03:59:57.004Z,19.60
2018-07-09T04:00:30.810Z,19.70
2018-07-09T04:01:04.436Z,19.70
2018-07-09T04:01:38.003Z,19.70
2018-07-09T04:02:11.641Z,19.70
2018-07-09T04:02:45.182Z,19.60
2018-07-09T04:03:18.772Z,19.70
2018-07-09T04:03:52.329Z,19.70
2018-07-09T04:04:25.857Z,19.70
2018-07-09T04:04:59.483Z,19.70
2018-07-09T04:06:06.411Z,19.70
2018-07-09T04:06:40.038Z,19.70
2018-07-09T04:07:14.613Z,19.70
2018-07-09T04:07:48.899Z,19.80
2018-07-09T04:08:22.564Z,19.70
2018-07-09T04:08:56.147Z,19.70
2018-07-09T04:09:29.664Z,19.70
2018-07-09T04:10:03.241Z,19.70
2018-07-09T04:10:36.860Z,19.70
2018-07-09T04:11:10.479Z,19.80
2018-07-09T04:11:44.684Z,19.80
2018-07-09T04:12:52.956Z,19.70
2018-07-09T04:13:26.573Z,19.70
2018-07-09T04:14:00.207Z,19.70
2018-07-09T04:14:34.325Z,19.70
2018-07-09T04:15:07.986Z,19.70
2018-07-09T04:15:43.364Z,19.60
2018-07-09T04:16:51.010Z,19.70
2018-07-09T04:17:24.575Z,19.70
2018-07-09T04:17:58.799Z,19.60
2018-07-09T04:18:32.394Z,19.60
2018-07-09T04:19:06.503Z,19.60
2018-07-09T04:19:40.217Z,19.60
2018-07-09T04:21:20.861Z,19.60
2018-07-09T04:21:54.551Z,19.60
2018-07-09T04:22:28.306Z,19.60
2018-07-09T04:23:02.882Z,19.60
2018-07-09T04:23:36.480Z,19.50
2018-07-09T04:24:10.012Z,19.60
2018-07-09T04:24:43.612Z,19.60
2018-07-09T04:25:17.184Z,19.60
2018-07-09T04:25:51.077Z,19.60
2018-07-09T04:26:24.679Z,19.60
2018-07-09T04:26:58.877Z,19.60
2018-07-09T04:27:32.683Z,19.60
2018-07-09T04:28:06.283Z,19.60
2018-07-09T04:28:40.613Z,19.60
2018-07-09T04:29:14.933Z,19.60
2018-07-09T04:29:48.975Z,19.60
2018-07-09T04:30:22.605Z,19.50
2018-07-09T04:30:56.182Z,19.50
2018-07-09T04:31:29.749Z,19.50
2018-07-09T04:32:03.330Z,19.60
2018-07-09T04:32:36.940Z,19.60
2018-07-09T04:33:10.579Z,19.50
2018-07-09T04:33:44.179Z,19.50
2018-07-09T04:34:19.530Z,19.60
2018-07-09T04:34:53.120Z,19.60
2018-07-09T04:35:26.867Z,19.60
2018-07-09T04:36:00.457Z,19.60
2018-07-09T04:36:34.092Z,19.60
2018-07-09T04:37:07.645Z,19.60
2018-07-09T04:37:41.190Z,19.60
2018-07-09T04:38:14.811Z,19.60
2018-07-09T04:38:48.501Z,19.60
2018-07-09T04:39:22.468Z,19.60
2018-07-09T04:39:56.055Z,19.60
2018-07-09T04:40:29.605Z,19.60
2018-07-09T04:41:03.772Z,19.50
2018-07-09T04:41:37.994Z,19.60
2018-07-09T04:42:12.162Z,19.60
2018-07-09T04:42:45.731Z,19.60
2018-07-09T04:43:19.267Z,19.60
2018-07-09T04:43:53.588Z,19.50
2018-07-09T04:44:27.117Z,19.60
2018-07-09T04:45:00.742Z,19.60
2018-07-09T04:45:34.477Z,19.60
2018-07-09T04:46:08.563Z,19.60
2018-07-09T04:46:42.568Z,19.60
2018-07-09T04:47:16.252Z,19.60
2018-07-09T04:47:50.740Z,19.60
2018-07-09T04:48:24.294Z,19.60
2018-07-09T04:48:57.831Z,19.60
2018-07-09T04:49:31.665Z,19.60
2018-07-09T04:50:06.237Z,19.60
2018-07-09T04:50:40.618Z,19.60
2018-07-09T04:51:15.427Z,19.60
2018-07-09T04:51:49.816Z,19.60
2018-07-09T04:52:58.327Z,19.60
2018-07-09T04:53:31.875Z,19.60
2018-07-09T04:54:05.904Z,19.60
2018-07-09T04:54:40.090Z,19.60
2018-07-09T04:55:13.702Z,19.60
2018-07-09T04:55:47.277Z,19.60
2018-07-09T04:56:20.833Z,19.60
2018-07-09T04:56:54.766Z,19.60
2018-07-09T04:57:28.343Z,19.60
2018-07-09T04:58:01.969Z,19.60
2018-07-09T04:58:35.541Z,19.60
2018-07-09T04:59:10.008Z,19.60
2018-07-09T04:59:43.580Z,19.60
2018-07-09T05:00:17.271Z,19.60
2018-07-09T05:00:50.859Z,19.60
2018-07-09T05:01:24.599Z,19.60
2018-07-09T05:01:58.192Z,19.60
2018-07-09T05:02:31.856Z,19.60
2018-07-09T05:03:07.767Z,19.60
2018-07-09T05:04:14.858Z,19.60
2018-07-09T05:04:48.433Z,19.60
2018-07-09T05:05:22.152Z,19.60
2018-07-09T05:05:55.703Z,19.60
2018-07-09T05:06:29.357Z,19.60
2018-07-09T05:07:04.176Z,19.70
2018-07-09T05:07:38.504Z,19.60
2018-07-09T05:08:12.131Z,19.70
2018-07-09T05:08:45.699Z,19.60
2018-07-09T05:09:52.515Z,19.60
2018-07-09T05:10:27.103Z,19.70
2018-07-09T05:11:00.611Z,19.70
2018-07-09T05:11:35.183Z,19.70
2018-07-09T05:12:09.738Z,19.70
2018-07-09T05:12:43.347Z,19.70
2018-07-09T05:13:16.931Z,19.60
2018-07-09T05:13:50.747Z,19.70
2018-07-09T05:14:24.669Z,19.60
2018-07-09T05:14:58.471Z,19.70
2018-07-09T05:15:32.081Z,19.70
2018-07-09T05:16:06.107Z,19.70
2018-07-09T05:16:39.669Z,19.70
2018-07-09T05:17:13.262Z,19.70
2018-07-09T05:17:47.573Z,19.70
2018-07-09T05:18:21.148Z,19.70
2018-07-09T05:18:54.745Z,19.70
2018-07-09T05:19:28.322Z,19.70
2018-07-09T05:20:01.985Z,19.70
2018-07-09T05:20:35.666Z,19.70
2018-07-09T05:21:09.717Z,19.70
2018-07-09T05:21:43.379Z,19.70
2018-07-09T05:22:16.977Z,19.70
2018-07-09T05:22:50.635Z,19.70
2018-07-09T05:23:25.464Z,19.70
2018-07-09T05:23:59.083Z,19.70
2018-07-09T05:24:32.628Z,19.80
2018-07-09T05:25:06.320Z,19.80
2018-07-09T05:25:40.436Z,19.80
2018-07-09T05:26:14.055Z,19.70
2018-07-09T05:26:47.595Z,19.70
2018-07-09T05:27:21.631Z,19.70
2018-07-09T05:27:55.167Z,19.70
2018-07-09T05:28:30.028Z,19.70
2018-07-09T05:29:04.617Z,19.70
2018-07-09T05:29:39.233Z,19.70
2018-07-09T05:30:12.884Z,19.70
2018-07-09T05:30:47.664Z,19.70
2018-07-09T05:31:21.485Z,19.80
2018-07-09T05:31:55.085Z,19.70
2018-07-09T05:33:01.906Z,19.70
2018-07-09T05:33:35.479Z,19.70
2018-07-09T05:34:09.080Z,19.70
2018-07-09T05:34:44.865Z,19.70
2018-07-09T05:35:19.336Z,19.70
2018-07-09T05:35:52.953Z,19.70
2018-07-09T05:36:26.737Z,19.70
2018-07-09T05:37:01.721Z,19.70
2018-07-09T05:37:35.676Z,19.70
2018-07-09T05:38:10.741Z,19.70
2018-07-09T05:38:45.125Z,19.70
2018-07-09T05:39:18.860Z,19.60
2018-07-09T05:39:52.473Z,19.60
2018-07-09T05:40:27.285Z,19.60
2018-07-09T05:41:01.521Z,19.60
2018-07-09T05:41:36.122Z,19.70
2018-07-09T05:42:10.950Z,19.60
2018-07-09T05:42:45.177Z,19.60
2018-07-09T05:43:19.399Z,19.60
2018-07-09T05:43:53.867Z,19.60
2018-07-09T05:44:28.285Z,19.60
2018-07-09T05:45:01.984Z,19.60
2018-07-09T05:45:35.648Z,19.60
2018-07-09T05:46:09.318Z,19.70
2018-07-09T05:46:43.043Z,19.60
2018-07-09T05:47:17.426Z,19.70
2018-07-09T05:47:51.997Z,19.60
2018-07-09T05:48:26.420Z,19.60
2018-07-09T05:49:34.628Z,19.60
2018-07-09T05:50:08.179Z,19.70
2018-07-09T05:50:41.750Z,19.70
2018-07-09T05:51:15.899Z,19.70
2018-07-09T05:51:50.153Z,19.70
2018-07-09T05:52:25.402Z,19.70
2018-07-09T05:52:59.136Z,19.80
2018-07-09T05:53:33.295Z,19.70
2018-07-09T05:54:07.205Z,19.70
2018-07-09T05:54:40.786Z,19.70
2018-07-09T05:55:14.454Z,19.70
2018-07-09T05:55:48.880Z,19.70
2018-07-09T05:56:22.763Z,19.70
2018-07-09T05:56:56.382Z,19.70
2018-07-09T05:57:30.025Z,19.70
2018-07-09T05:58:03.675Z,19.80
2018-07-09T05:58:37.279Z,19.70
2018-07-09T05:59:10.888Z,19.70
2018-07-09T05:59:44.921Z,19.70
2018-07-09T06:00:18.840Z,19.80
2018-07-09T06:00:53.171Z,19.70
2018-07-09T06:01:27.348Z,19.70
2018-07-09T06:02:01.244Z,19.80
2018-07-09T06:02:34.920Z,19.80
2018-07-09T06:03:09.375Z,19.80
2018-07-09T06:03:42.962Z,19.80
2018-07-09T06:04:16.571Z,19.80
2018-07-09T06:04:50.338Z,19.80
2018-07-09T06:05:23.937Z,19.80
2018-07-09T06:05:57.484Z,19.80
2018-07-09T06:06:32.536Z,19.80
2018-07-09T06:07:06.188Z,19.80
2018-07-09T06:08:12.985Z,19.80
2018-07-09T06:08:47.217Z,19.80
2018-07-09T06:09:21.156Z,19.80
2018-07-09T06:09:54.905Z,19.80
2018-07-09T06:10:28.482Z,19.80
2018-07-09T06:11:02.155Z,19.90
2018-07-09T06:11:35.838Z,19.90
2018-07-09T06:12:09.272Z,19.90
2018-07-09T06:12:43.494Z,19.90
2018-07-09T06:13:52.165Z,19.90
2018-07-09T06:14:25.896Z,19.90
2018-07-09T06:14:59.542Z,19.90
2018-07-09T06:15:33.320Z,19.90
2018-07-09T06:16:07.471Z,19.90
2018-07-09T06:16:41.043Z,19.80
2018-07-09T06:17:15.267Z,19.80
2018-07-09T06:18:22.503Z,19.80
2018-07-09T06:18:56.638Z,19.90
2018-07-09T06:20:04.432Z,19.90
2018-07-09T06:20:39.134Z,19.90
2018-07-09T06:21:12.753Z,19.90
2018-07-09T06:21:47.432Z,19.90
2018-07-09T06:22:21.240Z,19.90
2018-07-09T06:23:28.035Z,19.90
2018-07-09T06:24:01.940Z,19.90
2018-07-09T06:24:35.853Z,19.90
2018-07-09T06:25:10.548Z,19.90
2018-07-09T06:25:44.610Z,19.90
2018-07-09T06:26:18.179Z,19.90
2018-07-09T06:26:52.305Z,19.90
2018-07-09T06:27:25.893Z,19.90
2018-07-09T06:28:00.156Z,19.90
2018-07-09T06:28:33.762Z,19.90
2018-07-09T06:29:07.306Z,19.90
2018-07-09T06:29:40.879Z,19.90
2018-07-09T06:30:15.112Z,20.00
2018-07-09T06:30:49.395Z,20.00
2018-07-09T06:31:23.159Z,20.00
2018-07-09T06:31:56.843Z,20.00
2018-07-09T06:32:30.443Z,20.00
2018-07-09T06:33:04.905Z,20.00
2018-07-09T06:33:38.838Z,20.00
2018-07-09T06:34:12.479Z,20.00
2018-07-09T06:34:47.040Z,20.10
2018-07-09T06:35:21.796Z,20.00
2018-07-09T06:35:55.437Z,20.10
2018-07-09T06:36:29.061Z,20.10
2018-07-09T06:37:02.921Z,20.10
2018-07-09T06:37:37.105Z,20.10
2018-07-09T06:38:11.576Z,20.10
2018-07-09T06:38:45.096Z,20.10
2018-07-09T06:39:18.629Z,20.10
2018-07-09T06:39:52.194Z,20.10
2018-07-09T06:40:59.883Z,20.10
2018-07-09T06:41:33.532Z,20.20
2018-07-09T06:42:07.173Z,20.20
2018-07-09T06:42:41.831Z,20.20
2018-07-09T06:43:15.409Z,20.20
2018-07-09T06:43:49.831Z,20.20
2018-07-09T06:44:24.781Z,20.20
2018-07-09T06:44:59.018Z,20.20
2018-07-09T06:45:34.803Z,20.20
2018-07-09T06:46:10.890Z,20.20
2018-07-09T06:46:44.804Z,20.20
2018-07-09T06:47:19.064Z,20.20
2018-07-09T06:47:54.529Z,20.20
2018-07-09T06:48:28.344Z,20.20
2018-07-09T06:49:03.876Z,20.30
2018-07-09T06:49:37.548Z,20.20
2018-07-09T06:50:11.208Z,20.20
2018-07-09T06:50:45.211Z,20.30
2018-07-09T06:51:19.584Z,20.20
2018-07-09T06:51:53.507Z,20.30
2018-07-09T06:53:00.421Z,20.30
2018-07-09T06:53:34.760Z,20.20
2018-07-09T06:54:08.345Z,20.30
2018-07-09T06:54:42.380Z,20.30
2018-07-09T06:55:16.015Z,20.30
2018-07-09T06:55:50.388Z,20.30
2018-07-09T06:56:24.227Z,20.30
2018-07-09T06:56:57.863Z,20.20
2018-07-09T06:57:31.964Z,20.30
2018-07-09T06:58:05.696Z,20.30
2018-07-09T06:58:39.448Z,20.30
2018-07-09T06:59:13.622Z,20.20
2018-07-09T06:59:47.290Z,20.30
2018-07-09T07:00:21.645Z,20.30
2018-07-09T07:00:55.203Z,20.20
2018-07-09T07:01:28.740Z,20.30
2018-07-09T07:02:02.426Z,20.30
2018-07-09T07:02:35.992Z,20.30
2018-07-09T07:03:09.605Z,20.30
2018-07-09T07:03:43.382Z,20.30
2018-07-09T07:04:17.574Z,20.30
2018-07-09T07:04:51.884Z,20.30
2018-07-09T07:05:26.460Z,20.30
2018-07-09T07:06:00.796Z,20.30
2018-07-09T07:06:34.454Z,20.30
2018-07-09T07:07:08.800Z,20.30
2018-07-09T07:07:42.995Z,20.30
2018-07-09T07:08:16.685Z,20.30
2018-07-09T07:08:50.249Z,20.30
2018-07-09T07:09:23.879Z,20.30
2018-07-09T07:09:58.251Z,20.30
2018-07-09T07:10:32.579Z,20.30
2018-07-09T07:11:06.818Z,20.40
2018-07-09T07:11:40.403Z,20.30
2018-07-09T07:12:14.775Z,20.40
2018-07-09T07:12:49.172Z,20.40
2018-07-09T07:13:23.220Z,20.40
2018-07-09T07:13:57.852Z,20.40
2018-07-09T07:14:32.342Z,20.40
2018-07-09T07:15:06.188Z,20.40
2018-07-09T07:15:40.373Z,20.40
2018-07-09T07:16:14.603Z,20.50
2018-07-09T07:16:48.745Z,20.50
2018-07-09T07:17:22.987Z,20.50
2018-07-09T07:17:56.495Z,20.50
2018-07-09T07:18:30.171Z,20.50
2018-07-09T07:19:03.779Z,20.50
2018-07-09T07:19:37.499Z,20.50
2018-07-09T07:20:11.449Z,20.50
2018-07-09T07:20:45.728Z,20.50
2018-07-09T07:21:19.315Z,20.50
2018-07-09T07:21:53.349Z,20.50
2018-07-09T07:22:26.864Z,20.50
2018-07-09T07:23:01.349Z,20.50
2018-07-09T07:23:35.712Z,20.50
2018-07-09T07:24:09.811Z,20.50
2018-07-09T07:24:44.299Z,20.50
2018-07-09T07:25:18.491Z,20.50
2018-07-09T07:25:52.044Z,20.50
2018-07-09T07:26:25.684Z,20.50
2018-07-09T07:26:59.277Z,20.50
2018-07-09T07:27:32.867Z,20.60
2018-07-09T07:28:07.251Z,20.60
2018-07-09T07:28:40.791Z,20.60
2018-07-09T07:29:14.963Z,20.70
2018-07-09T07:29:48.787Z,20.70
2018-07-09T07:30:22.556Z,20.70
2018-07-09T07:30:56.147Z,20.70
2018-07-09T07:31:29.775Z,20.70
2018-07-09T07:32:03.392Z,20.70
2018-07-09T07:32:37.022Z,20.80
2018-07-09T07:33:10.668Z,20.80
2018-07-09T07:33:44.560Z,20.80
2018-07-09T07:34:18.192Z,20.80
2018-07-09T07:34:51.863Z,20.80
2018-07-09T07:35:27.562Z,20.80
2018-07-09T07:36:01.682Z,20.80
2018-07-09T07:36:35.243Z,20.90